createdAt,value
2022-12-04T00:03:44.257Z,4.70
2022-12-04T00:08:42.569Z,4.70
2022-12-04T00:13:41.589Z,4.70
2022-12-04T00:18:41.483Z,5.10
2022-12-04T00:23:40.181Z,4.40
2022-12-04T00:28:38.419Z,4.20
2022-12-04T00:33:36.843Z,4.10
2022-12-04T00:38:37.191Z,4.30
2022-12-04T00:43:35.388Z,4.20
2022-12-04T00:48:33.764Z,4.30
2022-12-04T00:53:32.146Z,4.50
2022-12-04T00:58:31.645Z,4.40
2022-12-04T01:03:29.913Z,4.50
2022-12-04T01:08:28.142Z,4.50
2022-12-04T01:13:27.065Z,4.10
2022-12-04T01:18:26.545Z,4.30
2022-12-04T01:23:24.721Z,4.30
2022-12-04T01:28:23.278Z,4.40
2022-12-04T01:33:21.451Z,4.40
2022-12-04T01:38:52.385Z,4.30
2022-12-04T01:44:09.467Z,4.40
2022-12-04T01:49:12.085Z,4.40
2022-12-04T01:54:16.234Z,4.60
2022-12-04T01:59:18.343Z,4.30
2022-12-04T02:04:16.525Z,4.20
2022-12-04T02:09:17.605Z,4.50
2022-12-04T02:14:27.002Z,4.40
2022-12-04T02:19:45.322Z,4.50
2022-12-04T02:24:54.036Z,4.30
2022-12-04T02:30:00.431Z,4.10
2022-12-04T02:35:03.762Z,4.00
2022-12-04T02:40:07.251Z,3.80
2022-12-04T02:45:11.286Z,3.80
2022-12-04T02:50:13.370Z,4.10
2022-12-04T02:55:17.479Z,4.50
2022-12-04T03:00:18.110Z,4.40
2022-12-04T03:05:19.397Z,4.40
2022-12-04T03:10:22.129Z,4.50
2022-12-04T03:15:27.726Z,4.00
2022-12-04T03:20:26.984Z,4.00
2022-12-04T03:25:33.230Z,4.00
2022-12-04T03:30:37.755Z,4.00
2022-12-04T03:35:42.336Z,3.90
2022-12-04T03:40:45.830Z,3.80
2022-12-04T03:45:49.789Z,3.80
2022-12-04T03:50:53.747Z,3.90
2022-12-04T03:55:57.508Z,4.10
2022-12-04T04:00:59.249Z,4.10
2022-12-04T04:06:03.080Z,3.70
2022-12-04T04:11:08.249Z,4.00
2022-12-04T04:16:28.607Z,3.80
2022-12-04T04:21:48.576Z,3.80
2022-12-04T04:26:48.443Z,3.90
2022-12-04T04:31:54.854Z,3.80
2022-12-04T04:36:59.564Z,3.90
2022-12-04T04:42:03.007Z,3.90
2022-12-04T04:47:07.307Z,4.00
2022-12-04T04:52:05.871Z,4.10
2022-12-04T04:57:04.085Z,4.00
2022-12-04T05:02:03.689Z,4.10
2022-12-04T05:07:01.909Z,4.10
2022-12-04T05:12:00.082Z,4.00
2022-12-04T05:17:01.784Z,3.90
2022-12-04T05:22:01.652Z,4.00
2022-12-04T05:26:59.851Z,4.30
2022-12-04T05:31:58.004Z,4.20
2022-12-04T05:36:56.133Z,4.30
2022-12-04T05:41:55.603Z,4.30
2022-12-04T05:46:54.169Z,4.40
2022-12-04T05:51:52.961Z,4.50
2022-12-04T05:56:51.262Z,4.50
2022-12-04T06:01:50.813Z,4.70
2022-12-04T06:06:48.995Z,4.40
2022-12-04T06:11:47.476Z,4.20
2022-12-04T06:16:47.471Z,4.10
2022-12-04T06:21:48.911Z,4.10
2022-12-04T06:27:18.856Z,4.20
2022-12-04T06:32:05.864Z,4.10
2022-12-04T06:37:05.471Z,4.00
2022-12-04T06:42:03.600Z,4.20
2022-12-04T06:47:01.737Z,4.60
2022-12-04T06:51:59.824Z,4.60
2022-12-04T06:56:59.290Z,4.40
2022-12-04T07:01:57.514Z,4.40
2022-12-04T07:06:55.801Z,4.70
2022-12-04T07:11:55.035Z,4.50
2022-12-04T07:16:54.636Z,4.60
2022-12-04T07:21:52.836Z,4.50
2022-12-04T07:26:51.062Z,4.40
2022-12-04T07:31:49.259Z,4.10
2022-12-04T07:36:48.821Z,4.50
2022-12-04T07:41:47.003Z,4.10
2022-12-04T07:46:46.034Z,4.40
2022-12-04T07:51:44.187Z,4.20
2022-12-04T07:56:43.712Z,4.30
2022-12-04T08:01:41.894Z,3.90
2022-12-04T08:06:40.586Z,4.10
2022-12-04T08:11:38.865Z,4.10
2022-12-04T08:16:38.539Z,4.00
2022-12-04T08:21:36.802Z,4.20
2022-12-04T08:26:35.043Z,4.00
2022-12-04T08:31:35.628Z,4.20
2022-12-04T08:36:36.036Z,4.10
2022-12-04T08:41:34.238Z,4.20
2022-12-04T08:46:32.430Z,4.30
2022-12-04T08:51:34.518Z,4.40
2022-12-04T08:56:35.068Z,4.10
2022-12-04T09:01:33.404Z,4.50
2022-12-04T09:06:31.805Z,4.40
2022-12-04T09:11:32.359Z,4.40
2022-12-04T09:16:32.201Z,4.30
2022-12-04T09:21:30.493Z,4.20
2022-12-04T09:26:30.780Z,4.40
2022-12-04T09:31:29.589Z,4.50
2022-12-04T09:36:29.208Z,4.50
2022-12-04T09:42:09.111Z,4.70
2022-12-04T09:47:13.374Z,4.60
2022-12-04T09:52:30.986Z,4.90
2022-12-04T09:57:37.209Z,4.90
2022-12-04T10:02:38.557Z,4.50
2022-12-04T10:07:52.034Z,4.60
2022-12-04T10:12:59.991Z,4.60
2022-12-04T10:24:51.180Z,4.80
2022-12-04T10:29:54.574Z,4.90
2022-12-04T10:34:56.334Z,5.20
2022-12-04T10:39:59.352Z,5.10
2022-12-04T10:44:57.853Z,4.90
2022-12-04T10:50:01.344Z,5.20
2022-12-04T10:55:02.745Z,4.80
2022-12-04T11:00:01.533Z,4.90
2022-12-04T11:05:02.764Z,4.80
2022-12-04T11:10:05.773Z,4.90
2022-12-04T11:15:14.859Z,5.10
2022-12-04T11:20:17.814Z,5.20
2022-12-04T11:25:20.445Z,5.10
2022-12-04T11:30:25.954Z,5.20
2022-12-04T11:35:26.820Z,5.20
2022-12-04T11:40:27.771Z,5.00
2022-12-04T11:45:26.170Z,4.80
2022-12-04T11:50:33.516Z,4.90
2022-12-04T11:55:43.039Z,5.20
2022-12-04T12:00:49.927Z,5.20
2022-12-04T12:06:26.934Z,5.20
2022-12-04T12:11:32.192Z,5.10
2022-12-04T12:16:43.935Z,5.20
2022-12-04T12:21:54.506Z,5.40
2022-12-04T12:27:07.407Z,5.20
2022-12-04T12:32:32.825Z,5.10
2022-12-04T12:37:41.072Z,5.00
2022-12-04T12:42:45.924Z,5.20
2022-12-04T12:47:49.016Z,5.50
2022-12-04T12:52:55.519Z,5.50
2022-12-04T12:58:01.889Z,5.30
2022-12-04T13:03:04.850Z,5.60
2022-12-04T13:08:11.834Z,5.10
2022-12-04T13:13:15.366Z,5.10
2022-12-04T13:18:22.546Z,5.20
2022-12-04T13:23:54.403Z,5.20
2022-12-04T13:28:58.848Z,5.30
2022-12-04T13:34:12.348Z,5.70
2022-12-04T13:39:39.139Z,5.30
2022-12-04T13:44:38.666Z,5.10
2022-12-04T13:49:38.345Z,5.20
2022-12-04T13:54:37.780Z,5.30
2022-12-04T13:59:39.909Z,5.40
2022-12-04T14:04:42.860Z,5.40
2022-12-04T14:09:45.198Z,5.80
2022-12-04T14:14:46.961Z,5.60
2022-12-04T14:19:52.270Z,5.40
2022-12-04T14:24:51.535Z,5.50
2022-12-04T14:29:55.782Z,5.50
2022-12-04T14:34:55.028Z,5.40
2022-12-04T14:39:54.594Z,5.30
2022-12-04T14:44:57.088Z,5.10
2022-12-04T14:50:26.510Z,5.10
2022-12-04T14:55:36.862Z,4.90
2022-12-04T15:00:36.392Z,5.00
2022-12-04T15:05:34.595Z,5.10
2022-12-04T15:10:52.192Z,5.40
2022-12-04T15:15:52.654Z,5.50
2022-12-04T15:20:57.647Z,5.20
2022-12-04T15:25:57.547Z,5.30
2022-12-04T15:30:58.401Z,5.20
2022-12-04T15:36:01.081Z,5.30
2022-12-04T15:41:01.771Z,5.30
2022-12-04T15:46:01.607Z,5.40
2022-12-04T15:51:03.004Z,5.20
2022-12-04T15:56:04.730Z,5.50
2022-12-04T16:01:07.287Z,5.20
2022-12-04T16:06:08.042Z,5.30
2022-12-04T16:11:22.753Z,5.30
2022-12-04T16:16:23.351Z,5.50
2022-12-04T16:21:25.837Z,5.70
2022-12-04T16:26:24.039Z,6.00
2022-12-04T16:31:24.682Z,5.60
2022-12-04T16:36:22.925Z,5.70
2022-12-04T16:41:21.820Z,5.70
2022-12-04T16:46:21.383Z,5.50
2022-12-04T16:51:22.677Z,5.60
2022-12-04T16:56:21.695Z,5.60
2022-12-04T17:01:23.522Z,5.50
2022-12-04T17:06:23.320Z,5.50
2022-12-04T17:11:21.510Z,5.60
2022-12-04T17:16:20.162Z,5.90
2022-12-04T17:21:18.770Z,6.10
2022-12-04T17:26:18.299Z,5.70
2022-12-04T17:31:19.573Z,5.80
2022-12-04T17:36:20.034Z,6.10
2022-12-04T17:41:19.547Z,6.10
2022-12-04T17:46:21.554Z,6.10
2022-12-04T17:51:22.385Z,5.90
2022-12-04T17:56:23.471Z,5.90
2022-12-04T18:01:23.549Z,5.80
2022-12-04T18:06:23.385Z,5.80
2022-12-04T18:11:25.441Z,5.90
2022-12-04T18:16:23.856Z,5.80
2022-12-04T18:21:22.331Z,5.80
2022-12-04T18:26:23.508Z,5.90
2022-12-04T18:31:21.930Z,6.10
2022-12-04T18:36:22.228Z,5.80
2022-12-04T18:41:20.496Z,5.90
2022-12-04T18:46:21.383Z,5.90
2022-12-04T18:51:23.049Z,5.80
2022-12-04T18:56:21.602Z,5.80
2022-12-04T19:02:21.190Z,5.90
2022-12-04T19:07:20.801Z,5.80
2022-12-04T19:12:18.973Z,5.90
2022-12-04T19:17:17.229Z,5.40
2022-12-04T19:22:15.694Z,5.30
2022-12-04T19:27:15.312Z,5.40
2022-12-04T19:32:13.489Z,5.40
2022-12-04T19:37:11.735Z,5.50
2022-12-04T19:42:10.772Z,5.70
2022-12-04T19:47:10.321Z,5.50
2022-12-04T19:52:08.541Z,5.60
2022-12-04T19:57:06.706Z,5.90
2022-12-04T20:02:04.908Z,5.50
2022-12-04T20:07:05.641Z,5.80
2022-12-04T20:12:04.030Z,5.70
2022-12-04T20:17:03.947Z,5.90
2022-12-04T20:22:02.397Z,5.50
2022-12-04T20:27:03.243Z,5.60
2022-12-04T20:32:01.454Z,5.70
2022-12-04T20:43:50.192Z,5.50
2022-12-04T20:48:49.905Z,5.60
2022-12-04T20:53:49.873Z,5.60
2022-12-04T21:05:49.889Z,6.00
2022-12-04T21:10:48.035Z,5.90
2022-12-04T21:16:05.504Z,5.90
2022-12-04T21:21:05.462Z,6.00
2022-12-04T21:26:03.587Z,6.00
2022-12-04T21:31:02.989Z,6.00
2022-12-04T21:36:07.251Z,5.80
2022-12-04T21:47:54.192Z,5.40
2022-12-04T21:52:55.494Z,5.50
2022-12-04T21:57:53.622Z,5.80
2022-12-04T22:02:51.825Z,5.90
2022-12-04T22:07:50.098Z,5.80
2022-12-04T22:12:50.622Z,6.10
2022-12-04T22:17:49.052Z,5.80
2022-12-04T22:22:47.274Z,6.20
2022-12-04T22:27:45.459Z,6.00
2022-12-04T22:32:45.155Z,6.30
2022-12-04T22:37:44.677Z,6.10
2022-12-04T22:42:43.256Z,5.80
2022-12-04T22:54:39.573Z,5.80
2022-12-04T23:00:39.304Z,5.30
2022-12-04T23:05:37.978Z,5.60
2022-12-04T23:11:05.167Z,5.60
2022-12-04T23:16:38.928Z,5.50
2022-12-04T23:21:37.418Z,5.50
2022-12-04T23:26:38.959Z,5.60
2022-12-04T23:32:37.793Z,5.80
2022-12-04T23:37:36.055Z,5.30
2022-12-04T23:42:35.787Z,5.30
2022-12-04T23:47:34.164Z,5.20
2022-12-04T23:52:32.400Z,5.20
2022-12-04T23:57:30.745Z,5.10
